Belfast, United Kingdom

7:51 PM IST on May 05, 2015 (GMT +0100)
Aldergrove | | Change Station
CLOSE
Current Station
Airport
Location: Belfast,
Elevation: 266 ft
Nearby Weather Stations

Elev 266 ft 54.66 °N, 6.23 °W | Updated 31 minutes ago

Scattered Clouds
Scattered Clouds
46 °F
Feels Like 40 °F
N
16
Wind Variable Wind from WSW

Today
High -- | Low -- °F
--% Chance of Precip.
Yesterday
High -- | Low -- °F
Precip. -- in
5:38 AM 9:05 PM
Full, 97% visible
Pressure 29.09 in
Visibility 6.2 miles
Clouds Few 1500 ft
Scattered Clouds 3200 ft
Windchill 40 °F
Dew Point 41 °F
Humidity 81%
Rainfall 0.00 in
Snow Depth Not available.
UV 1 out of 12
Pollen Not available.
Air Quality Not available.
Flu Activity Not available.
METAR EGAA 051820Z 24014KT 9999 FEW015 SCT032 08/05 Q0985

More Conditions Fewer Conditions

Pressure 29.09 in
Visibility 6.2 miles
Clouds Few 1500 ft
Scattered Clouds 3200 ft
Windchill 40 °F
Dew Point 41 °F
Humidity 81%
Rainfall 0.00 in
Snow Depth Not available.
UV 1 out of 12
Pollen Not available.
Air Quality Not available.
Flu Activity Not available.
METAR EGAA 051820Z 24014KT 9999 FEW015 SCT032 08/05 Q0985

More Conditions Fewer Conditions

10-Day Weather Forecast

Almanac

Astronomy

May. 05, 2015 Rise Set
Actual Time
Civil Twilight
Nautical Twilight
Astronomical Twilight
Moon
Length of Visible Light
Length of Day
Tomorrow will be .
, % of the Moon is Illuminated

Today's Extremes

Country Highs Country Lows

Community

WunderPhotos

Upload Photos

1,818,953 photos uploaded!

WunderBlogs® & News

Nearby

Air Quality

  Air Quality AQ Index Pollutant
Not available.

Snow Depth

Station Depth Elevation

Earthquake Activity

City Distance Mag. Time & Date
Minimum magnitude displayed is 2.5.

Coastal Water Temperatures

Place Temperature

Stations

Nearby Weather Stations

Station Location Temp. Windchill Dew Point Humidity Wind Precip. Elev Updated Type